Time;durP1;ratioP1;P1;durP2;ratioP2;P2;SDS_P1;SDS_P2;PMS_P1;PMS_P2;Temp;Humidity;BMP_temperature;BMP_pressure;BME280_temperature;BME280_humidity;BME280_pressure;Samples;Min_cycle;Max_cycle;Signal;HPM_P1;HPM_P2
2022/11/23 00:01:32;;;;;;;10.27;4.60;;;;;;;;;;5084958;28;20035;-70
2022/11/23 00:03:59;;;;;;;7.95;4.55;;;;;;;;;;5067120;28;20378;-74
2022/11/23 00:06:25;;;;;;;12.03;5.40;;;;;;;;;;5049034;28;20024;-72
2022/11/23 00:08:52;;;;;;;40.10;4.97;;;;;;;;;;5049289;28;20069;-71
2022/11/23 00:11:17;;;;;;;10.13;4.87;;;;;;;;;;5051639;28;20036;-72
2022/11/23 00:13:43;;;;;;;8.63;4.30;;;;;;;;;;5067572;28;20032;-71
2022/11/23 00:16:14;;;;;;;11.10;4.63;;;;;;;;;;5102911;28;20035;-70
2022/11/23 00:18:39;;;;;;;6.85;4.47;;;;;;;;;;5052763;28;20086;-73
2022/11/23 00:21:06;;;;;;;7.37;4.70;;;;;;;;;;5067032;28;20458;-74
2022/11/23 00:23:32;;;;;;;15.68;4.90;;;;;;;;;;5084531;28;20343;-73
2022/11/23 00:25:57;;;;;;;7.67;4.63;;;;;;;;;;5050822;28;20029;-72
2022/11/23 00:28:23;;;;;;;11.13;5.37;;;;;;;;;;5051989;28;20028;-74
2022/11/23 00:30:49;;;;;;;11.32;5.35;;;;;;;;;;5050086;28;20042;-73
2022/11/23 00:33:15;;;;;;;14.98;5.32;;;;;;;;;;5066576;28;20069;-70
2022/11/23 00:35:41;;;;;;;9.37;4.57;;;;;;;;;;5084894;28;20036;-71
2022/11/23 00:38:07;;;;;;;9.37;5.13;;;;;;;;;;5067982;28;20047;-71
2022/11/23 00:40:32;;;;;;;9.90;5.03;;;;;;;;;;5052672;28;20031;-71
2022/11/23 00:42:58;;;;;;;13.13;5.70;;;;;;;;;;5051076;28;20055;-72
2022/11/23 00:45:24;;;;;;;11.35;5.03;;;;;;;;;;5067905;28;20461;-70
2022/11/23 00:47:49;;;;;;;11.17;6.00;;;;;;;;;;5065436;28;20134;-70
2022/11/23 00:50:15;;;;;;;19.40;8.13;;;;;;;;;;5051450;28;20097;-70
2022/11/23 00:52:41;;;;;;;19.50;8.40;;;;;;;;;;5067568;28;20047;-74
2022/11/23 00:55:07;;;;;;;16.67;7.93;;;;;;;;;;5058414;28;20035;-74
2022/11/23 00:57:33;;;;;;;28.77;9.07;;;;;;;;;;5041158;28;20458;-72
2022/11/23 00:59:59;;;;;;;19.73;9.57;;;;;;;;;;5057340;28;20078;-72
2022/11/23 01:02:24;;;;;;;24.27;10.47;;;;;;;;;;5040922;28;20067;-72
2022/11/23 01:04:50;;;;;;;33.63;10.55;;;;;;;;;;5040770;28;20482;-72
2022/11/23 01:07:16;;;;;;;23.92;10.02;;;;;;;;;;5040516;28;20442;-72
2022/11/23 01:09:41;;;;;;;20.15;9.32;;;;;;;;;;5040973;28;20039;-71
2022/11/23 01:12:07;;;;;;;18.50;8.97;;;;;;;;;;5075099;28;20043;-71
2022/11/23 01:14:33;;;;;;;24.50;8.70;;;;;;;;;;5041454;28;20032;-71
2022/11/23 01:16:58;;;;;;;15.85;8.07;;;;;;;;;;5074894;28;20114;-71
2022/11/23 01:19:24;;;;;;;19.20;8.18;;;;;;;;;;5074889;28;20040;-71
2022/11/23 01:21:49;;;;;;;15.63;7.95;;;;;;;;;;5041454;28;20386;-71
2022/11/23 01:24:17;;;;;;;14.60;7.38;;;;;;;;;;5041337;28;20036;-73
2022/11/23 01:26:44;;;;;;;13.27;6.78;;;;;;;;;;5041341;28;20473;-74
2022/11/23 01:29:10;;;;;;;13.97;6.60;;;;;;;;;;5058157;28;20077;-72
2022/11/23 01:31:37;;;;;;;20.30;6.20;;;;;;;;;;5041983;28;20523;-72
2022/11/23 01:34:04;;;;;;;14.83;6.37;;;;;;;;;;5074755;28;20077;-71
2022/11/23 01:36:33;;;;;;;14.40;6.43;;;;;;;;;;5074516;28;20146;-71
2022/11/23 01:38:59;;;;;;;10.13;5.37;;;;;;;;;;5058076;28;20054;-72
2022/11/23 01:41:27;;;;;;;12.17;5.13;;;;;;;;;;5040961;28;20036;-72
2022/11/23 01:43:53;;;;;;;15.20;7.03;;;;;;;;;;5041084;28;20438;-76
2022/11/23 01:46:19;;;;;;;13.70;6.23;;;;;;;;;;5040959;28;20039;-72
2022/11/23 01:48:44;;;;;;;10.20;5.57;;;;;;;;;;5041127;28;20027;-72
2022/11/23 01:51:13;;;;;;;9.60;5.03;;;;;;;;;;5057642;28;20043;-71
2022/11/23 01:53:40;;;;;;;9.77;4.40;;;;;;;;;;5057689;28;20040;-70
2022/11/23 01:56:06;;;;;;;8.03;3.60;;;;;;;;;;5057385;28;20355;-71
2022/11/23 01:58:35;;;;;;;6.70;3.83;;;;;;;;;;5053702;28;20581;-72
2022/11/23 02:01:03;;;;;;;6.35;3.70;;;;;;;;;;5054438;28;20075;-72
2022/11/23 02:03:29;;;;;;;10.60;5.07;;;;;;;;;;5037537;28;20060;-73
2022/11/23 02:06:00;;;;;;;10.47;4.77;;;;;;;;;;5071521;28;20064;-73
2022/11/23 02:08:26;;;;;;;12.10;5.63;;;;;;;;;;5054276;28;20364;-72
2022/11/23 02:10:54;;;;;;;12.60;6.20;;;;;;;;;;5053501;28;20064;-73
2022/11/23 02:13:19;;;;;;;20.55;8.70;;;;;;;;;;5035531;28;20048;-72
2022/11/23 02:15:45;;;;;;;20.53;8.10;;;;;;;;;;5035693;28;20090;-74
2022/11/23 02:18:16;;;;;;;21.60;8.77;;;;;;;;;;5069606;28;20033;-80
2022/11/23 02:20:42;;;;;;;26.40;11.40;;;;;;;;;;5052933;28;20033;-72
2022/11/23 02:23:27;;;;;;;26.33;11.70;;;;;;;;;;5037335;28;20425;-71
2022/11/23 02:26:05;;;;;;;26.17;11.30;;;;;;;;;;5037589;28;20547;-73
2022/11/23 02:28:35;;;;;;;16.87;9.00;;;;;;;;;;5070729;28;20036;-72
2022/11/23 02:31:01;;;;;;;19.13;9.00;;;;;;;;;;5054060;28;20071;-73
2022/11/23 02:33:27;;;;;;;18.40;8.15;;;;;;;;;;5037305;28;20102;-73
2022/11/23 02:35:54;;;;;;;15.98;7.80;;;;;;;;;;5037136;28;20033;-74
2022/11/23 02:38:23;;;;;;;15.13;8.13;;;;;;;;;;5054333;28;20485;-74
2022/11/23 02:40:49;;;;;;;11.85;6.82;;;;;;;;;;5037417;28;20043;-74
2022/11/23 02:43:14;;;;;;;16.52;7.40;;;;;;;;;;5037572;28;20488;-72
2022/11/23 02:45:50;;;;;;;10.27;5.60;;;;;;;;;;5037352;28;20078;-72
2022/11/23 02:48:17;;;;;;;7.25;3.70;;;;;;;;;;5070787;28;20036;-79
2022/11/23 02:50:43;;;;;;;8.50;4.07;;;;;;;;;;5037554;28;20459;-72
2022/11/23 02:53:08;;;;;;;10.25;4.68;;;;;;;;;;5036995;28;20097;-72
2022/11/23 02:55:34;;;;;;;8.90;4.57;;;;;;;;;;5037050;28;20135;-73
2022/11/23 02:58:01;;;;;;;7.17;3.80;;;;;;;;;;5037161;28;20114;-72
2022/11/23 03:00:27;;;;;;;7.10;3.97;;;;;;;;;;5057204;28;20036;-73
2022/11/23 03:02:53;;;;;;;6.63;3.88;;;;;;;;;;5040311;28;20123;-73
2022/11/23 03:05:19;;;;;;;10.13;4.63;;;;;;;;;;5040241;28;20032;-73
2022/11/23 03:07:48;;;;;;;10.38;5.28;;;;;;;;;;5057535;28;20036;-73
2022/11/23 03:10:14;;;;;;;8.93;4.67;;;;;;;;;;5040436;28;20192;-70
2022/11/23 03:12:40;;;;;;;8.50;4.27;;;;;;;;;;5059242;28;20140;-72
2022/11/23 03:15:06;;;;;;;11.07;5.10;;;;;;;;;;5060427;28;20039;-71
2022/11/23 03:17:34;;;;;;;9.18;4.60;;;;;;;;;;5043643;28;20032;-72
2022/11/23 03:20:00;;;;;;;12.45;4.07;;;;;;;;;;5060196;28;20051;-72
2022/11/23 03:22:28;;;;;;;7.15;3.63;;;;;;;;;;5044107;28;20031;-72
2022/11/23 03:24:56;;;;;;;11.18;5.22;;;;;;;;;;5043434;28;20085;-73
2022/11/23 03:27:22;;;;;;;8.30;4.40;;;;;;;;;;5043366;28;20062;-72
2022/11/23 03:29:49;;;;;;;10.38;4.60;;;;;;;;;;5043580;28;20375;-73
2022/11/23 03:32:18;;;;;;;5.97;3.10;;;;;;;;;;5044052;28;20050;-79
2022/11/23 03:34:48;;;;;;;4.30;2.80;;;;;;;;;;5044227;28;20040;-79
2022/11/23 03:37:15;;;;;;;6.57;2.90;;;;;;;;;;5076871;28;20036;-73
2022/11/23 03:39:41;;;;;;;6.60;3.20;;;;;;;;;;5043372;28;20039;-73
2022/11/23 03:42:32;;;;;;;;;;;;;;;;;;5063212;28;20109;-72
2022/11/23 03:44:58;;;;;;;7.17;3.53;;;;;;;;;;5059832;28;20354;-71
2022/11/23 03:47:23;;;;;;;4.23;2.93;;;;;;;;;;5076540;28;20040;-72
2022/11/23 03:49:49;;;;;;;6.63;4.20;;;;;;;;;;5043376;28;20036;-75
2022/11/23 03:52:15;;;;;;;6.57;3.73;;;;;;;;;;5059726;28;20040;-73
2022/11/23 03:54:43;;;;;;;5.97;3.50;;;;;;;;;;5060161;28;20075;-73
2022/11/23 03:57:08;;;;;;;5.30;3.70;;;;;;;;;;5042938;28;20056;-74
2022/11/23 03:59:34;;;;;;;5.40;3.60;;;;;;;;;;5059365;28;20059;-72
2022/11/23 04:02:00;;;;;;;5.27;4.07;;;;;;;;;;5059266;28;20034;-72
2022/11/23 04:04:30;;;;;;;7.83;4.43;;;;;;;;;;5060177;28;20134;-73
2022/11/23 04:07:16;;;;;;;9.60;5.05;;;;;;;;;;5022145;28;20266;-73
2022/11/23 04:09:48;;;;;;;10.65;6.05;;;;;;;;;;5043998;28;20477;-72
2022/11/23 04:12:40;;;;;;;9.27;5.50;;;;;;;;;;5032146;28;20060;-73
2022/11/23 04:15:06;;;;;;;10.17;5.77;;;;;;;;;;5059138;28;20134;-72
2022/11/23 04:17:33;;;;;;;10.60;6.63;;;;;;;;;;5042803;28;20028;-71
2022/11/23 04:19:59;;;;;;;10.07;6.07;;;;;;;;;;5042529;28;20540;-71
2022/11/23 04:22:24;;;;;;;11.83;7.10;;;;;;;;;;5041303;28;20163;-71
2022/11/23 04:24:51;;;;;;;8.53;5.83;;;;;;;;;;5042615;28;20381;-78
2022/11/23 04:27:17;;;;;;;7.67;5.43;;;;;;;;;;5042858;28;20032;-73
2022/11/23 04:29:43;;;;;;;7.90;5.43;;;;;;;;;;5042183;28;20074;-72
2022/11/23 04:32:09;;;;;;;9.43;5.57;;;;;;;;;;5042447;28;20040;-71
2022/11/23 04:34:36;;;;;;;11.03;5.47;;;;;;;;;;5042051;28;20039;-72
2022/11/23 04:37:03;;;;;;;8.07;4.90;;;;;;;;;;5075641;28;20039;-71
2022/11/23 04:39:35;;;;;;;7.38;4.78;;;;;;;;;;5059471;28;20032;-69
2022/11/23 04:42:21;;;;;;;6.43;4.30;;;;;;;;;;5038001;28;20055;-70
2022/11/23 04:44:51;;;;;;;7.03;4.72;;;;;;;;;;5042836;28;20071;-71
2022/11/23 04:47:18;;;;;;;7.43;4.20;;;;;;;;;;5042286;28;20474;-71
2022/11/23 04:49:45;;;;;;;6.43;4.33;;;;;;;;;;5042068;28;20040;-67
2022/11/23 04:52:11;;;;;;;7.73;4.60;;;;;;;;;;5058071;28;20675;-68
2022/11/23 04:54:43;;;;;;;6.63;4.13;;;;;;;;;;5042630;28;20074;-69
2022/11/23 04:57:09;;;;;;;7.50;4.20;;;;;;;;;;5041530;28;20063;-68
2022/11/23 04:59:36;;;;;;;7.97;3.73;;;;;;;;;;5041927;28;20052;-69
2022/11/23 05:02:02;;;;;;;7.23;3.67;;;;;;;;;;5041536;28;20101;-68
2022/11/23 05:04:44;;;;;;;6.23;4.00;;;;;;;;;;5043936;28;20126;-69
2022/11/23 05:07:11;;;;;;;7.17;4.50;;;;;;;;;;5041719;28;20028;-69
2022/11/23 05:09:39;;;;;;;6.63;4.20;;;;;;;;;;5058612;28;20143;-68
2022/11/23 05:12:12;;;;;;;9.03;4.93;;;;;;;;;;5042284;28;20048;-69
2022/11/23 05:14:38;;;;;;;8.93;4.83;;;;;;;;;;5043590;28;20071;-68
2022/11/23 05:17:06;;;;;;;22.67;7.23;;;;;;;;;;5073524;28;20035;-68
2022/11/23 05:19:33;;;;;;;18.23;6.90;;;;;;;;;;5073084;28;20031;-68
2022/11/23 05:21:58;;;;;;;19.60;6.67;;;;;;;;;;5064492;28;20437;-68
2022/11/23 05:24:24;;;;;;;13.07;6.13;;;;;;;;;;5065662;28;20038;-69
2022/11/23 05:27:06;;;;;;;11.80;6.00;;;;;;;;;;5066499;28;20028;-69
2022/11/23 05:29:33;;;;;;;12.30;6.43;;;;;;;;;;5083097;28;20745;-68
2022/11/23 05:31:58;;;;;;;15.57;7.00;;;;;;;;;;5048030;28;20040;-68
2022/11/23 05:34:24;;;;;;;15.17;7.23;;;;;;;;;;5066916;28;20435;-70
2022/11/23 05:36:49;;;;;;;14.23;6.90;;;;;;;;;;5062673;28;20027;-67
2022/11/23 05:39:16;;;;;;;17.50;8.43;;;;;;;;;;5062086;28;20040;-68
2022/11/23 05:41:43;;;;;;;17.03;8.77;;;;;;;;;;5059226;28;20100;-69
2022/11/23 05:44:22;;;;;;;17.17;8.60;;;;;;;;;;5067041;28;20031;-68
2022/11/23 05:46:48;;;;;;;17.27;7.60;;;;;;;;;;5082026;28;20598;-68
2022/11/23 05:49:14;;;;;;;16.13;7.67;;;;;;;;;;5049908;28;20035;-69
2022/11/23 05:51:40;;;;;;;12.17;7.03;;;;;;;;;;5064575;28;20055;-69
2022/11/23 05:54:06;;;;;;;13.27;6.90;;;;;;;;;;5082054;28;20035;-69
2022/11/23 05:56:38;;;;;;;14.27;7.40;;;;;;;;;;5050641;28;20054;-71
2022/11/23 05:59:12;;;;;;;12.90;7.07;;;;;;;;;;5056036;28;20083;-70
2022/11/23 06:01:41;;;;;;;14.20;7.20;;;;;;;;;;5047901;28;20067;-70
2022/11/23 06:04:09;;;;;;;13.73;7.57;;;;;;;;;;5065776;28;20035;-71
2022/11/23 06:06:39;;;;;;;12.80;7.95;;;;;;;;;;5050102;28;20040;-70
2022/11/23 06:09:05;;;;;;;17.27;7.53;;;;;;;;;;5064006;28;20092;-71
2022/11/23 06:11:34;;;;;;;13.50;7.30;;;;;;;;;;5063923;28;20868;-72
2022/11/23 06:14:05;;;;;;;12.57;7.50;;;;;;;;;;5063746;28;20047;-71
2022/11/23 06:16:31;;;;;;;11.73;7.07;;;;;;;;;;5049306;28;20023;-72
2022/11/23 06:19:08;;;;;;;11.57;7.00;;;;;;;;;;5048844;28;20493;-71
2022/11/23 06:21:37;;;;;;;11.27;6.73;;;;;;;;;;5050467;28;20028;-73
2022/11/23 06:24:04;;;;;;;11.37;6.80;;;;;;;;;;5047868;28;20032;-71
2022/11/23 06:26:30;;;;;;;9.30;6.33;;;;;;;;;;5065309;28;20461;-67
2022/11/23 06:28:57;;;;;;;10.07;6.83;;;;;;;;;;5053163;28;20046;-70
2022/11/23 06:31:22;;;;;;;11.17;6.63;;;;;;;;;;5051909;28;20082;-69
2022/11/23 06:33:48;;;;;;;9.57;6.50;;;;;;;;;;5056601;28;20073;-73
2022/11/23 06:36:14;;;;;;;9.00;5.83;;;;;;;;;;5062860;28;20028;-69
2022/11/23 06:38:46;;;;;;;12.23;6.53;;;;;;;;;;5050186;28;20043;-67
2022/11/23 06:41:16;;;;;;;10.10;6.53;;;;;;;;;;5045636;28;20031;-68
2022/11/23 06:43:45;;;;;;;9.30;6.00;;;;;;;;;;5065493;28;20891;-67
2022/11/23 06:46:16;;;;;;;12.43;6.50;;;;;;;;;;5054626;28;20058;-68
2022/11/23 06:48:46;;;;;;;15.33;7.47;;;;;;;;;;5084952;28;20028;-69
2022/11/23 06:51:13;;;;;;;13.32;7.63;;;;;;;;;;5068937;28;20078;-68
2022/11/23 06:53:39;;;;;;;10.60;6.73;;;;;;;;;;5068904;28;20105;-67
2022/11/23 06:56:07;;;;;;;14.60;7.57;;;;;;;;;;5066945;28;20389;-67
2022/11/23 06:58:32;;;;;;;17.53;7.53;;;;;;;;;;5059665;28;20058;-67
2022/11/23 07:01:01;;;;;;;15.83;8.47;;;;;;;;;;5063218;28;20035;-68
2022/11/23 07:03:28;;;;;;;14.77;8.17;;;;;;;;;;5072234;28;20154;-68
2022/11/23 07:06:05;;;;;;;18.17;8.03;;;;;;;;;;5064569;28;20605;-68
2022/11/23 07:08:32;;;;;;;13.57;8.27;;;;;;;;;;5069343;28;20069;-68
2022/11/23 07:11:05;;;;;;;15.40;8.00;;;;;;;;;;5057715;28;20028;-70
2022/11/23 07:13:32;;;;;;;16.67;8.17;;;;;;;;;;5059479;28;20044;-69
2022/11/23 07:15:58;;;;;;;16.10;9.37;;;;;;;;;;5061234;28;20042;-68
2022/11/23 07:18:24;;;;;;;17.83;9.10;;;;;;;;;;5062910;28;20058;-68
2022/11/23 07:20:58;;;;;;;17.97;9.10;;;;;;;;;;5079674;28;20533;-71
2022/11/23 07:23:25;;;;;;;18.00;8.97;;;;;;;;;;5062426;28;20043;-72
2022/11/23 07:25:50;;;;;;;19.03;9.10;;;;;;;;;;5060098;28;20040;-68
2022/11/23 07:28:16;;;;;;;16.47;8.57;;;;;;;;;;5060425;28;20042;-67
2022/11/23 07:30:42;;;;;;;15.03;8.77;;;;;;;;;;5060280;28;20031;-68
2022/11/23 07:33:09;;;;;;;14.97;9.10;;;;;;;;;;5059785;28;20039;-68
2022/11/23 07:35:36;;;;;;;16.00;8.73;;;;;;;;;;5059375;28;20047;-67
2022/11/23 07:38:03;;;;;;;14.97;8.90;;;;;;;;;;5077086;28;20047;-69
2022/11/23 07:40:28;;;;;;;18.55;10.00;;;;;;;;;;5061294;28;20085;-69
2022/11/23 07:43:01;;;;;;;19.85;11.70;;;;;;;;;;5078829;28;20054;-68
2022/11/23 07:45:27;;;;;;;18.83;10.80;;;;;;;;;;5061542;28;20028;-68
2022/11/23 07:48:01;;;;;;;20.50;12.37;;;;;;;;;;5095028;28;20039;-67
2022/11/23 07:50:27;;;;;;;23.43;12.33;;;;;;;;;;5078832;28;20047;-68
2022/11/23 07:52:53;;;;;;;19.17;12.23;;;;;;;;;;5061136;28;20505;-68
2022/11/23 07:55:19;;;;;;;18.93;13.10;;;;;;;;;;5061515;28;20023;-68
2022/11/23 07:57:44;;;;;;;19.10;11.98;;;;;;;;;;5060844;28;20132;-68
2022/11/23 08:00:17;;;;;;;18.77;11.50;;;;;;;;;;5062536;28;20146;-67
2022/11/23 08:02:45;;;;;;;16.23;10.73;;;;;;;;;;5061696;28;20122;-67
2022/11/23 08:05:10;;;;;;;22.00;11.00;;;;;;;;;;5061063;28;20473;-67
2022/11/23 08:07:36;;;;;;;16.57;9.70;;;;;;;;;;5060462;28;20036;-68
2022/11/23 08:10:02;;;;;;;13.53;9.60;;;;;;;;;;5078414;28;20171;-68
2022/11/23 08:12:29;;;;;;;19.80;10.33;;;;;;;;;;5094942;28;20043;-69
2022/11/23 08:14:54;;;;;;;13.50;9.27;;;;;;;;;;5077737;28;20566;-68
2022/11/23 08:17:20;;;;;;;15.50;9.40;;;;;;;;;;5061206;28;20039;-67
2022/11/23 08:19:45;;;;;;;15.07;9.87;;;;;;;;;;5094563;28;20047;-67
2022/11/23 08:22:11;;;;;;;13.40;8.93;;;;;;;;;;5078157;28;20032;-67
2022/11/23 08:24:37;;;;;;;11.90;8.40;;;;;;;;;;5061113;28;20027;-67
2022/11/23 08:27:02;;;;;;;14.00;9.47;;;;;;;;;;5060688;28;20046;-68
2022/11/23 08:29:28;;;;;;;14.30;10.00;;;;;;;;;;5061431;28;20032;-67
2022/11/23 08:31:53;;;;;;;16.47;9.73;;;;;;;;;;5045678;28;20194;-67
2022/11/23 08:34:19;;;;;;;14.70;9.13;;;;;;;;;;5057407;28;20032;-68
2022/11/23 08:36:45;;;;;;;16.08;10.02;;;;;;;;;;5041131;28;20116;-68
2022/11/23 08:39:11;;;;;;;17.13;9.83;;;;;;;;;;5056956;28;20140;-67
2022/11/23 08:41:37;;;;;;;14.77;9.40;;;;;;;;;;5040727;28;20035;-67
2022/11/23 08:44:03;;;;;;;16.33;10.30;;;;;;;;;;5040347;28;20481;-67
2022/11/23 08:46:29;;;;;;;15.87;10.40;;;;;;;;;;5081468;28;20771;-68
2022/11/23 08:48:54;;;;;;;17.23;10.17;;;;;;;;;;5071344;28;20032;-68
2022/11/23 08:51:21;;;;;;;15.20;9.70;;;;;;;;;;5050316;28;20032;-67
2022/11/23 08:53:48;;;;;;;15.07;8.90;;;;;;;;;;5072612;28;20889;-66
2022/11/23 08:56:13;;;;;;;14.57;9.80;;;;;;;;;;5082069;28;20106;-66
2022/11/23 08:58:39;;;;;;;14.17;9.33;;;;;;;;;;5066457;28;20588;-68
2022/11/23 09:01:11;;;;;;;17.07;10.37;;;;;;;;;;5093823;28;20039;-69
2022/11/23 09:03:37;;;;;;;15.70;9.67;;;;;;;;;;5077494;28;20046;-67
2022/11/23 09:06:04;;;;;;;17.13;10.27;;;;;;;;;;5077851;28;20058;-66
2022/11/23 09:08:30;;;;;;;18.57;9.73;;;;;;;;;;5059950;28;20039;-67
2022/11/23 09:10:59;;;;;;;12.77;8.77;;;;;;;;;;5060878;28;20137;-66
2022/11/23 09:13:25;;;;;;;13.73;8.23;;;;;;;;;;5076794;28;20089;-67
2022/11/23 09:15:51;;;;;;;13.90;8.30;;;;;;;;;;5060392;28;20564;-67
2022/11/23 09:18:16;;;;;;;12.20;8.13;;;;;;;;;;5060825;28;20088;-67
2022/11/23 09:20:42;;;;;;;9.95;7.22;;;;;;;;;;5076998;28;20038;-67
2022/11/23 09:23:08;;;;;;;10.88;7.25;;;;;;;;;;5077255;28;20039;-67
2022/11/23 09:25:34;;;;;;;9.63;6.67;;;;;;;;;;5069468;28;20348;-67
2022/11/23 09:28:00;;;;;;;10.67;7.13;;;;;;;;;;5039700;28;20073;-66
2022/11/23 09:30:26;;;;;;;12.27;7.60;;;;;;;;;;5038814;28;20028;-66
2022/11/23 09:32:53;;;;;;;12.00;7.82;;;;;;;;;;5054758;28;20097;-66
2022/11/23 09:35:19;;;;;;;16.20;8.65;;;;;;;;;;5037904;28;20114;-66
2022/11/23 09:37:44;;;;;;;11.55;7.47;;;;;;;;;;5038044;28;20122;-66
2022/11/23 09:40:16;;;;;;;11.73;7.28;;;;;;;;;;5038035;28;20032;-67
2022/11/23 09:42:51;;;;;;;11.13;6.90;;;;;;;;;;5039983;28;20042;-66
2022/11/23 09:45:19;;;;;;;12.77;7.45;;;;;;;;;;5040058;28;20416;-67
2022/11/23 09:47:45;;;;;;;10.02;6.80;;;;;;;;;;5040182;28;20366;-67
2022/11/23 09:50:21;;;;;;;9.45;6.32;;;;;;;;;;5056701;28;20061;-66
2022/11/23 09:52:48;;;;;;;11.65;6.95;;;;;;;;;;5039911;28;20098;-66
2022/11/23 09:55:23;;;;;;;10.50;6.80;;;;;;;;;;5039922;28;20028;-67
2022/11/23 09:57:50;;;;;;;11.43;6.35;;;;;;;;;;5039900;28;20957;-68
2022/11/23 10:00:18;;;;;;;9.15;6.40;;;;;;;;;;5039666;28;20062;-67
2022/11/23 10:02:44;;;;;;;8.77;6.70;;;;;;;;;;5073293;28;20070;-68
2022/11/23 10:05:15;;;;;;;8.82;6.68;;;;;;;;;;5040050;28;20036;-67
2022/11/23 10:07:41;;;;;;;;;;;;;;;;;;5040463;28;20492;-67
2022/11/23 10:10:11;;;;;;;8.43;5.50;;;;;;;;;;5056499;28;19955;-67
2022/11/23 10:12:55;;;;;;;9.52;5.57;;;;;;;;;;5055587;28;20100;-67
2022/11/23 10:15:51;;;;;;;8.48;5.97;;;;;;;;;;5039581;28;20051;-68
2022/11/23 10:18:16;;;;;;;10.60;5.90;;;;;;;;;;5038847;28;20130;-67
2022/11/23 10:20:51;;;;;;;11.30;6.32;;;;;;;;;;5041409;28;20126;-66
2022/11/23 10:23:36;;;;;;;9.77;6.50;;;;;;;;;;5077218;28;20047;-67
2022/11/23 10:26:01;;;;;;;9.00;6.80;;;;;;;;;;5043955;28;20067;-66
2022/11/23 10:28:28;;;;;;;14.93;8.48;;;;;;;;;;5044099;28;20074;-66
2022/11/23 10:31:06;;;;;;;14.88;8.23;;;;;;;;;;5060330;28;20382;-67
2022/11/23 10:33:43;;;;;;;14.07;7.93;;;;;;;;;;5043582;28;20047;-67
2022/11/23 10:36:10;;;;;;;20.02;9.35;;;;;;;;;;5043894;28;20032;-68
2022/11/23 10:38:35;;;;;;;17.77;10.30;;;;;;;;;;5077165;28;20127;-66
2022/11/23 10:41:03;;;;;;;17.20;9.48;;;;;;;;;;5043649;28;20126;-67
2022/11/23 10:43:52;;;;;;;12.57;7.13;;;;;;;;;;5094786;28;20035;-71
2022/11/23 10:46:50;;;;;;;10.10;6.35;;;;;;;;;;5049336;28;20181;-66
2022/11/23 10:49:23;;;;;;;9.38;6.35;;;;;;;;;;5016217;28;20048;-67
2022/11/23 10:51:51;;;;;;;12.02;7.05;;;;;;;;;;5054574;28;20024;-67
2022/11/23 10:54:26;;;;;;;11.15;6.43;;;;;;;;;;5099291;28;20039;-67
2022/11/23 10:56:53;;;;;;;9.13;6.70;;;;;;;;;;5059120;28;20487;-67
2022/11/23 10:59:26;;;;;;;8.95;5.72;;;;;;;;;;5067872;28;20946;-67
2022/11/23 11:02:18;;;;;;;8.85;6.10;;;;;;;;;;5067137;28;20027;-67
2022/11/23 11:04:47;;;;;;;8.07;6.00;;;;;;;;;;5046072;28;20040;-66
2022/11/23 11:07:27;;;;;;;10.40;7.25;;;;;;;;;;5086072;28;20595;-67
2022/11/23 11:09:54;;;;;;;12.98;7.78;;;;;;;;;;5055880;28;20024;-70
2022/11/23 11:12:21;;;;;;;14.07;8.03;;;;;;;;;;5062285;28;20077;-66
2022/11/23 11:14:57;;;;;;;18.92;8.93;;;;;;;;;;5062834;28;20125;-66
2022/11/23 11:17:28;;;;;;;16.77;8.25;;;;;;;;;;5059099;28;20470;-65
2022/11/23 11:19:54;;;;;;;16.13;9.07;;;;;;;;;;5062914;28;20478;-65
2022/11/23 11:22:28;;;;;;;12.85;8.20;;;;;;;;;;5052599;28;20324;-65
2022/11/23 11:24:54;;;;;;;16.38;8.73;;;;;;;;;;5096078;28;20035;-66
2022/11/23 11:27:21;;;;;;;11.75;7.43;;;;;;;;;;5056540;28;20708;-66
2022/11/23 11:29:48;;;;;;;15.90;8.40;;;;;;;;;;5076882;28;20027;-66
2022/11/23 11:32:14;;;;;;;11.57;7.60;;;;;;;;;;5076081;28;20078;-66
2022/11/23 11:34:39;;;;;;;17.42;8.68;;;;;;;;;;5060385;28;20499;-66
2022/11/23 11:37:08;;;;;;;16.02;9.13;;;;;;;;;;5077028;28;20505;-66
2022/11/23 11:39:34;;;;;;;12.85;7.55;;;;;;;;;;5060422;28;20096;-66
2022/11/23 11:42:02;;;;;;;13.80;7.13;;;;;;;;;;5077769;28;20054;-68
2022/11/23 11:44:31;;;;;;;11.87;5.93;;;;;;;;;;5062851;28;20043;-67
2022/11/23 11:46:59;;;;;;;11.65;5.40;;;;;;;;;;5063055;28;20043;-66
2022/11/23 11:49:28;;;;;;;13.25;6.75;;;;;;;;;;5096266;28;20028;-66
2022/11/23 11:51:58;;;;;;;15.85;6.00;;;;;;;;;;5062081;28;20470;-66
2022/11/23 11:54:35;;;;;;;13.38;5.15;;;;;;;;;;5062513;28;20193;-66
2022/11/23 11:57:04;;;;;;;6.72;4.43;;;;;;;;;;5077643;28;20046;-66
2022/11/23 11:59:41;;;;;;;8.30;4.97;;;;;;;;;;5095328;28;20469;-72
2022/11/23 12:02:16;;;;;;;7.93;4.78;;;;;;;;;;5095761;28;20024;-67
2022/11/23 12:04:45;;;;;;;11.55;5.18;;;;;;;;;;5061984;28;20036;-67
2022/11/23 12:07:15;;;;;;;6.45;4.75;;;;;;;;;;5061991;28;20385;-71
2022/11/23 12:09:43;;;;;;;7.47;4.68;;;;;;;;;;5062122;28;20130;-72
2022/11/23 12:12:15;;;;;;;9.73;4.82;;;;;;;;;;5061403;28;20500;-70
2022/11/23 12:14:41;;;;;;;7.70;4.55;;;;;;;;;;5078491;28;20091;-70
2022/11/23 12:17:33;;;;;;;5.03;3.75;;;;;;;;;;5061877;28;20042;-71
2022/11/23 12:20:19;;;;;;;4.22;3.60;;;;;;;;;;5061887;28;20036;-80
2022/11/23 12:22:45;;;;;;;4.65;3.30;;;;;;;;;;5061066;28;20138;-71
2022/11/23 12:25:26;;;;;;;7.90;3.85;;;;;;;;;;5061793;28;20135;-71
2022/11/23 12:27:52;;;;;;;9.55;4.43;;;;;;;;;;5078339;28;20035;-71
2022/11/23 12:30:37;;;;;;;6.18;3.60;;;;;;;;;;5078312;28;20100;-69
2022/11/23 12:33:22;;;;;;;5.18;3.50;;;;;;;;;;5078146;28;20150;-67
2022/11/23 12:36:07;;;;;;;6.75;3.80;;;;;;;;;;5061260;28;20045;-68
2022/11/23 12:38:42;;;;;;;5.93;3.75;;;;;;;;;;5060686;28;20040;-68
2022/11/23 12:41:17;;;;;;;6.72;3.78;;;;;;;;;;5061421;28;20027;-69
2022/11/23 12:43:55;;;;;;;6.40;4.23;;;;;;;;;;5060946;28;20157;-68
2022/11/23 12:46:40;;;;;;;7.85;5.15;;;;;;;;;;5061380;28;20042;-69
2022/11/23 12:49:13;;;;;;;11.68;5.68;;;;;;;;;;5061250;28;20177;-68
2022/11/23 12:51:52;;;;;;;7.90;5.67;;;;;;;;;;5058683;28;20122;-68
2022/11/23 12:54:19;;;;;;;9.20;5.80;;;;;;;;;;5061748;28;20031;-68
2022/11/23 12:56:47;;;;;;;12.65;7.00;;;;;;;;;;5060989;28;20068;-69
2022/11/23 12:59:13;;;;;;;11.40;6.57;;;;;;;;;;5061190;28;20055;-71
2022/11/23 13:01:41;;;;;;;9.98;7.20;;;;;;;;;;5077831;28;20031;-67
2022/11/23 13:04:31;;;;;;;15.02;7.35;;;;;;;;;;5060587;28;20041;-68
2022/11/23 13:07:12;;;;;;;11.43;6.88;;;;;;;;;;5060915;28;20043;-67
2022/11/23 13:09:48;;;;;;;10.82;5.97;;;;;;;;;;5060541;28;20134;-68
2022/11/23 13:12:20;;;;;;;10.82;5.25;;;;;;;;;;5059765;28;20048;-67
2022/11/23 13:15:01;;;;;;;8.03;5.17;;;;;;;;;;5060578;28;20442;-68
2022/11/23 13:17:47;;;;;;;6.43;4.70;;;;;;;;;;5061229;28;20058;-68
2022/11/23 13:20:22;;;;;;;6.00;5.35;;;;;;;;;;5060670;28;20405;-67
2022/11/23 13:22:48;;;;;;;7.47;4.93;;;;;;;;;;5060143;28;20032;-68
2022/11/23 13:25:22;;;;;;;10.40;5.97;;;;;;;;;;5060247;28;20096;-69
2022/11/23 13:27:47;;;;;;;12.63;5.80;;;;;;;;;;5077027;28;20047;-67
2022/11/23 13:30:33;;;;;;;9.25;6.50;;;;;;;;;;5060219;28;20036;-68
2022/11/23 13:33:21;;;;;;;11.68;7.00;;;;;;;;;;5060321;28;20530;-68
2022/11/23 13:35:50;;;;;;;12.43;6.60;;;;;;;;;;5046162;28;20055;-68
2022/11/23 13:38:15;;;;;;;10.43;7.00;;;;;;;;;;5060238;28;20108;-70
2022/11/23 13:40:42;;;;;;;10.47;6.73;;;;;;;;;;5060268;28;20484;-67
2022/11/23 13:43:14;;;;;;;10.40;6.50;;;;;;;;;;5076917;28;20063;-68
2022/11/23 13:45:46;;;;;;;8.80;6.20;;;;;;;;;;5059701;28;20031;-68
2022/11/23 13:48:18;;;;;;;10.85;6.95;;;;;;;;;;5076838;28;20049;-67
2022/11/23 13:50:47;;;;;;;9.87;7.27;;;;;;;;;;5059855;28;20031;-67
2022/11/23 13:53:20;;;;;;;10.68;7.20;;;;;;;;;;5059825;28;20051;-68
2022/11/23 13:55:46;;;;;;;11.47;7.47;;;;;;;;;;5059315;28;20063;-68
2022/11/23 13:58:21;;;;;;;13.13;8.27;;;;;;;;;;5059883;28;20063;-67
2022/11/23 14:01:00;;;;;;;15.70;8.50;;;;;;;;;;5059663;28;20493;-68
2022/11/23 14:03:41;;;;;;;14.60;9.73;;;;;;;;;;5059746;28;20046;-67
2022/11/23 14:06:30;;;;;;;20.97;9.90;;;;;;;;;;5059637;28;20040;-67
2022/11/23 14:09:08;;;;;;;18.37;9.80;;;;;;;;;;5060083;28;20039;-68
2022/11/23 14:11:38;;;;;;;16.97;9.73;;;;;;;;;;5059327;28;20454;-69
2022/11/23 14:14:05;;;;;;;18.38;9.43;;;;;;;;;;5059695;28;20036;-68
2022/11/23 14:16:51;;;;;;;14.70;9.27;;;;;;;;;;5076552;28;20039;-68
2022/11/23 14:19:26;;;;;;;16.00;9.50;;;;;;;;;;5075768;28;20069;-69
2022/11/23 14:22:10;;;;;;;16.10;9.50;;;;;;;;;;5059453;28;20028;-69
2022/11/23 14:24:37;;;;;;;13.33;9.63;;;;;;;;;;5075896;28;20046;-70
2022/11/23 14:27:05;;;;;;;15.03;9.63;;;;;;;;;;5076670;28;20052;-68
2022/11/23 14:29:34;;;;;;;12.30;8.93;;;;;;;;;;5059543;28;20035;-68
2022/11/23 14:32:00;;;;;;;13.40;8.75;;;;;;;;;;5059337;28;20051;-73
2022/11/23 14:34:41;;;;;;;12.57;7.43;;;;;;;;;;5060302;28;20103;-69
2022/11/23 14:37:26;;;;;;;10.07;7.10;;;;;;;;;;5076680;28;20039;-68
2022/11/23 14:39:55;;;;;;;11.27;7.25;;;;;;;;;;5076078;28;20101;-69
2022/11/23 14:42:21;;;;;;;13.63;8.23;;;;;;;;;;5059957;28;20126;-67
2022/11/23 14:44:49;;;;;;;12.13;8.47;;;;;;;;;;5076025;28;20039;-67
2022/11/23 14:47:24;;;;;;;16.07;8.90;;;;;;;;;;5076464;28;20042;-68